createdAt,value
2022-12-17T00:00:51.648Z,68.90
2022-12-17T00:03:39.326Z,68.80
2022-12-17T00:06:25.193Z,68.60
2022-12-17T00:09:10.868Z,68.80
2022-12-17T00:11:56.461Z,68.70
2022-12-17T00:14:42.031Z,68.70
2022-12-17T00:17:29.090Z,68.60
2022-12-17T00:20:14.650Z,68.70
2022-12-17T00:23:00.313Z,68.80
2022-12-17T00:25:46.164Z,68.90
2022-12-17T00:28:32.329Z,68.80
2022-12-17T00:31:18.039Z,68.60
2022-12-17T00:34:05.240Z,68.50
2022-12-17T00:36:50.725Z,68.60
2022-12-17T00:39:37.355Z,68.70
2022-12-17T00:42:23.148Z,68.60
2022-12-17T00:45:08.819Z,68.50
2022-12-17T00:47:55.359Z,68.40
2022-12-17T00:50:43.601Z,68.30
2022-12-17T00:53:40.632Z,68.40
2022-12-17T00:56:41.096Z,68.40
2022-12-17T00:59:26.520Z,68.40
2022-12-17T01:02:12.220Z,68.40
2022-12-17T01:04:57.586Z,68.40
2022-12-17T01:07:44.539Z,68.30
2022-12-17T01:10:30.070Z,68.10
2022-12-17T01:13:16.452Z,68.10
2022-12-17T01:16:02.065Z,68.20
2022-12-17T01:18:47.484Z,68.30
2022-12-17T01:21:41.407Z,68.30
2022-12-17T01:24:29.141Z,68.30
2022-12-17T01:27:14.708Z,68.30
2022-12-17T01:30:00.189Z,68.40
2022-12-17T01:32:45.707Z,68.40
2022-12-17T01:35:31.559Z,68.40
2022-12-17T01:38:17.061Z,68.30
2022-12-17T01:41:09.485Z,68.30
2022-12-17T01:43:57.130Z,68.30
2022-12-17T01:46:45.580Z,68.40
2022-12-17T01:49:32.249Z,68.40
2022-12-17T01:52:19.187Z,68.30
2022-12-17T01:55:05.307Z,68.20
2022-12-17T01:57:52.476Z,68.30
2022-12-17T02:00:38.057Z,68.40
2022-12-17T02:03:24.043Z,68.40
2022-12-17T02:06:20.715Z,68.40
2022-12-17T02:09:12.825Z,68.40
2022-12-17T02:12:06.339Z,68.30
2022-12-17T02:14:58.548Z,68.30
2022-12-17T02:17:50.564Z,68.20
2022-12-17T02:20:43.303Z,68.50
2022-12-17T02:23:43.397Z,68.70
2022-12-17T02:26:33.829Z,68.70
2022-12-17T02:29:35.527Z,68.30
2022-12-17T02:32:23.084Z,68.30
2022-12-17T02:35:10.364Z,68.60
2022-12-17T02:37:56.518Z,68.60
2022-12-17T02:40:43.524Z,68.60
2022-12-17T02:43:29.869Z,68.60
2022-12-17T02:46:17.038Z,68.60
2022-12-17T02:49:02.524Z,68.50
2022-12-17T02:51:50.940Z,68.40
2022-12-17T02:54:36.489Z,68.40
2022-12-17T02:57:23.245Z,68.30
2022-12-17T03:00:08.532Z,68.40
2022-12-17T03:02:55.450Z,68.40
2022-12-17T03:05:45.576Z,68.40
2022-12-17T03:08:31.925Z,68.50
2022-12-17T03:11:17.841Z,68.50
2022-12-17T03:14:03.662Z,68.50
2022-12-17T03:16:49.608Z,68.50
2022-12-17T03:19:36.405Z,68.50
2022-12-17T03:22:21.087Z,68.40
2022-12-17T03:25:06.724Z,68.40
2022-12-17T03:27:52.336Z,68.40
2022-12-17T03:30:39.084Z,68.40
2022-12-17T03:33:27.182Z,68.40
2022-12-17T03:36:14.174Z,68.20
2022-12-17T03:38:59.776Z,68.20
2022-12-17T03:41:45.248Z,68.40
2022-12-17T03:44:30.877Z,68.20
2022-12-17T03:47:16.606Z,68.00
2022-12-17T03:50:02.067Z,68.00
2022-12-17T03:52:48.885Z,68.00
2022-12-17T03:55:34.339Z,68.20
2022-12-17T03:58:19.876Z,68.30
2022-12-17T04:01:05.624Z,68.30
2022-12-17T04:04:02.415Z,68.30
2022-12-17T04:06:53.346Z,68.30
2022-12-17T04:09:40.351Z,68.20
2022-12-17T04:12:25.902Z,68.30
2022-12-17T04:15:11.688Z,68.20
2022-12-17T04:17:57.231Z,68.10
2022-12-17T04:20:43.112Z,68.00
2022-12-17T04:23:28.609Z,67.90
2022-12-17T04:26:15.549Z,68.10
2022-12-17T04:29:01.088Z,68.30
2022-12-17T04:31:46.701Z,68.30
2022-12-17T04:34:32.378Z,68.20
2022-12-17T04:37:18.001Z,68.10
2022-12-17T04:40:03.349Z,68.30
2022-12-17T04:42:50.259Z,68.30
2022-12-17T04:45:35.697Z,68.40
2022-12-17T04:48:21.753Z,68.40
2022-12-17T04:51:07.500Z,68.30
2022-12-17T04:53:53.113Z,68.20
2022-12-17T04:56:39.188Z,68.10
2022-12-17T04:59:26.136Z,68.00
2022-12-17T05:02:11.752Z,68.10
2022-12-17T05:04:57.200Z,68.20
2022-12-17T05:07:42.466Z,68.30
2022-12-17T05:10:28.288Z,68.30
2022-12-17T05:13:22.763Z,68.50
2022-12-17T05:16:14.582Z,68.60
2022-12-17T05:19:00.535Z,68.50
2022-12-17T05:21:46.247Z,68.50
2022-12-17T05:24:31.867Z,68.50
2022-12-17T05:27:17.666Z,68.40
2022-12-17T05:30:03.205Z,68.40
2022-12-17T05:32:49.943Z,68.50
2022-12-17T05:35:35.405Z,68.50
2022-12-17T05:38:24.072Z,68.30
2022-12-17T05:41:10.111Z,68.20
2022-12-17T05:43:55.702Z,68.20
2022-12-17T05:46:41.338Z,68.30
2022-12-17T05:49:28.222Z,68.30
2022-12-17T05:52:13.756Z,68.30
2022-12-17T05:54:59.359Z,68.40
2022-12-17T05:57:44.910Z,68.40
2022-12-17T06:00:31.442Z,68.30
2022-12-17T06:03:18.160Z,68.20
2022-12-17T06:06:05.938Z,68.00
2022-12-17T06:08:51.367Z,67.80
2022-12-17T06:11:36.779Z,67.80
2022-12-17T06:14:22.388Z,67.90
2022-12-17T06:17:16.364Z,68.00
2022-12-17T06:20:01.590Z,68.10
2022-12-17T06:22:48.507Z,67.90
2022-12-17T06:25:33.809Z,67.70
2022-12-17T06:28:19.751Z,67.80
2022-12-17T06:31:09.244Z,67.90
2022-12-17T06:33:54.664Z,68.00
2022-12-17T06:36:40.624Z,67.90
2022-12-17T06:39:27.653Z,67.90
2022-12-17T06:42:13.212Z,67.90
2022-12-17T06:44:58.818Z,67.80
2022-12-17T06:47:44.392Z,67.80
2022-12-17T06:50:30.076Z,67.80
2022-12-17T06:53:19.808Z,67.80
2022-12-17T06:56:06.914Z,67.80
2022-12-17T06:58:52.314Z,67.80
2022-12-17T07:01:37.882Z,67.70
2022-12-17T07:04:23.742Z,67.60
2022-12-17T07:07:09.252Z,67.50
2022-12-17T07:09:54.655Z,67.50
2022-12-17T07:12:44.258Z,67.60
2022-12-17T07:15:30.269Z,67.60
2022-12-17T07:18:16.751Z,67.60
2022-12-17T07:21:02.183Z,67.50
2022-12-17T07:23:47.728Z,67.30
2022-12-17T07:26:33.900Z,67.20
2022-12-17T07:29:20.868Z,67.20
2022-12-17T07:32:06.768Z,67.30
2022-12-17T07:34:52.216Z,67.40
2022-12-17T07:37:40.640Z,67.40
2022-12-17T07:40:27.680Z,67.40
2022-12-17T07:43:13.154Z,67.40
2022-12-17T07:45:59.840Z,67.10
2022-12-17T07:48:45.162Z,67.30
2022-12-17T07:51:30.782Z,67.50
2022-12-17T07:54:30.907Z,67.50
2022-12-17T07:57:16.624Z,67.60
2022-12-17T08:00:02.195Z,67.50
2022-12-17T08:03:06.294Z,67.50
2022-12-17T08:05:51.945Z,67.50
2022-12-17T08:08:37.644Z,67.50
2022-12-17T08:11:23.132Z,67.50
2022-12-17T08:14:08.717Z,67.40
2022-12-17T08:16:54.451Z,67.40
2022-12-17T08:19:41.458Z,67.40
2022-12-17T08:22:30.725Z,67.40
2022-12-17T08:25:16.381Z,67.40
2022-12-17T08:28:04.559Z,67.40
2022-12-17T08:30:56.345Z,67.40
2022-12-17T08:33:41.646Z,67.50
2022-12-17T08:36:28.471Z,67.40
2022-12-17T08:39:14.151Z,67.40
2022-12-17T08:42:04.051Z,67.40
2022-12-17T08:44:49.919Z,67.50
2022-12-17T08:47:34.736Z,67.60
2022-12-17T08:50:20.217Z,67.60
2022-12-17T08:53:07.442Z,67.60
2022-12-17T08:55:52.808Z,67.60
2022-12-17T08:58:39.676Z,67.60
2022-12-17T09:01:25.338Z,67.80
2022-12-17T09:04:10.896Z,67.90
2022-12-17T09:06:53.162Z,67.90
2022-12-17T09:09:45.588Z,67.90
2022-12-17T09:12:31.302Z,68.00
2022-12-17T09:15:16.914Z,68.00
2022-12-17T09:18:02.660Z,68.10
2022-12-17T09:20:48.233Z,68.10
2022-12-17T09:23:37.345Z,67.90
2022-12-17T09:26:25.614Z,67.90
2022-12-17T09:29:11.179Z,68.20
2022-12-17T09:31:56.876Z,68.20
2022-12-17T09:34:42.497Z,68.30
2022-12-17T09:37:28.022Z,68.30
2022-12-17T09:40:13.620Z,68.30
2022-12-17T09:43:10.471Z,68.40
2022-12-17T09:46:01.233Z,68.40
2022-12-17T09:48:54.092Z,68.50
2022-12-17T09:51:43.095Z,68.50
2022-12-17T09:54:34.324Z,68.50
2022-12-17T09:57:20.011Z,68.60
2022-12-17T10:00:07.061Z,68.70
2022-12-17T10:02:58.372Z,68.70
2022-12-17T10:05:46.114Z,68.80
2022-12-17T10:08:34.782Z,68.70
2022-12-17T10:11:34.589Z,69.00
2022-12-17T10:14:21.156Z,69.00
2022-12-17T10:17:11.840Z,68.90
2022-12-17T10:20:00.406Z,68.90
2022-12-17T10:22:46.214Z,69.00
2022-12-17T10:25:35.680Z,69.00
2022-12-17T10:28:23.965Z,69.10
2022-12-17T10:31:09.639Z,69.20
2022-12-17T10:33:58.552Z,69.20
2022-12-17T10:36:45.320Z,69.30
2022-12-17T10:39:35.416Z,69.30
2022-12-17T10:42:21.476Z,69.40
2022-12-17T10:45:07.185Z,69.50
2022-12-17T10:47:52.926Z,69.50
2022-12-17T10:50:41.840Z,69.50
2022-12-17T10:53:37.809Z,69.60
2022-12-17T10:56:24.269Z,69.60
2022-12-17T10:59:12.479Z,69.70
2022-12-17T11:01:59.661Z,69.70
2022-12-17T11:04:47.080Z,69.70
2022-12-17T11:07:39.706Z,69.70
2022-12-17T11:10:32.606Z,69.80
2022-12-17T11:13:23.083Z,69.90
2022-12-17T11:16:11.113Z,70.00
2022-12-17T11:19:17.102Z,70.00
2022-12-17T11:22:05.958Z,70.10
2022-12-17T11:24:59.690Z,70.10
2022-12-17T11:27:50.141Z,70.10
2022-12-17T11:30:36.642Z,70.10
2022-12-17T11:33:30.556Z,70.10
2022-12-17T11:36:25.827Z,70.20
2022-12-17T11:39:23.397Z,70.20
2022-12-17T11:42:18.274Z,70.40
2022-12-17T11:45:13.091Z,70.50
2022-12-17T11:48:09.172Z,70.40
2022-12-17T11:51:03.307Z,70.50
2022-12-17T11:54:03.519Z,70.50
2022-12-17T11:56:53.592Z,70.60
2022-12-17T11:59:52.681Z,70.60
2022-12-17T12:02:56.675Z,70.70
2022-12-17T12:05:56.423Z,70.80
2022-12-17T12:08:54.625Z,70.80
2022-12-17T12:11:51.617Z,70.80
2022-12-17T12:14:49.670Z,70.80
2022-12-17T12:17:49.931Z,70.90
2022-12-17T12:21:01.581Z,70.90
2022-12-17T12:24:01.415Z,70.90
2022-12-17T12:26:50.992Z,71.00
2022-12-17T12:29:49.187Z,71.30
2022-12-17T12:32:44.438Z,71.70
2022-12-17T12:35:34.948Z,71.90
2022-12-17T12:38:21.768Z,71.90
2022-12-17T12:41:13.078Z,71.90
2022-12-17T12:44:04.375Z,71.80
2022-12-17T12:46:56.599Z,71.80
2022-12-17T12:49:47.788Z,71.60
2022-12-17T12:52:39.221Z,71.60
2022-12-17T12:55:25.174Z,71.60
2022-12-17T12:58:19.933Z,71.60
2022-12-17T13:01:13.345Z,71.50
2022-12-17T13:04:08.388Z,71.50
2022-12-17T13:06:44.253Z,71.50
2022-12-17T13:09:35.345Z,71.50
2022-12-17T13:12:25.467Z,71.50
2022-12-17T13:15:00.111Z,71.50
2022-12-17T13:17:32.710Z,71.60
2022-12-17T13:20:03.549Z,71.40
2022-12-17T13:22:34.546Z,71.20
2022-12-17T13:25:17.369Z,71.10
2022-12-17T13:27:46.608Z,71.20
2022-12-17T13:30:24.228Z,71.20
2022-12-17T13:33:02.935Z,71.40
2022-12-17T13:35:39.809Z,71.40
2022-12-17T13:38:18.242Z,71.60
2022-12-17T13:40:50.779Z,71.70
2022-12-17T13:43:21.744Z,71.70
2022-12-17T13:45:51.368Z,71.80
2022-12-17T13:48:25.128Z,71.70
2022-12-17T13:50:59.583Z,71.80
2022-12-17T13:53:29.724Z,71.80
2022-12-17T13:55:58.699Z,71.90
2022-12-17T13:58:28.483Z,71.90
2022-12-17T14:01:06.745Z,71.90
2022-12-17T14:04:04.303Z,72.00
2022-12-17T14:06:24.855Z,72.00
2022-12-17T14:08:56.452Z,72.10
2022-12-17T14:11:42.277Z,72.20
2022-12-17T14:14:18.940Z,72.30
2022-12-17T14:16:50.809Z,72.30
2022-12-17T14:19:19.372Z,72.20
2022-12-17T14:21:47.950Z,72.30
2022-12-17T14:24:19.683Z,72.30
2022-12-17T14:26:51.734Z,72.30
2022-12-17T14:29:25.014Z,72.70
2022-12-17T14:31:54.559Z,73.00
2022-12-17T14:34:24.062Z,73.10
2022-12-17T14:36:57.043Z,73.10
2022-12-17T14:39:29.865Z,73.00
2022-12-17T14:42:17.056Z,72.90
2022-12-17T14:44:53.096Z,72.70
2022-12-17T14:47:24.676Z,72.70
2022-12-17T14:50:06.347Z,72.70
2022-12-17T14:52:37.901Z,72.80
2022-12-17T14:55:37.136Z,72.70
2022-12-17T14:58:20.836Z,72.70
2022-12-17T15:00:52.156Z,72.60
2022-12-17T15:03:23.957Z,72.60
2022-12-17T15:05:55.713Z,72.50
2022-12-17T15:08:24.128Z,72.50
2022-12-17T15:10:53.489Z,72.50
2022-12-17T15:13:21.829Z,72.20
2022-12-17T15:15:49.741Z,71.80
2022-12-17T15:18:17.708Z,71.70
2022-12-17T15:20:45.920Z,71.80
2022-12-17T15:23:17.693Z,71.70
2022-12-17T15:25:47.203Z,71.70
2022-12-17T15:28:17.365Z,71.80
2022-12-17T15:30:45.809Z,71.90
2022-12-17T15:33:13.948Z,71.90
2022-12-17T15:35:43.114Z,71.90
2022-12-17T15:38:12.622Z,71.80
2022-12-17T15:40:40.753Z,71.90
2022-12-17T15:43:12.870Z,71.80
2022-12-17T15:45:44.380Z,71.90
2022-12-17T15:48:14.164Z,72.10
2022-12-17T15:50:42.168Z,72.10
2022-12-17T15:53:10.349Z,72.10
2022-12-17T15:55:39.068Z,72.10
2022-12-17T15:58:39.415Z,72.10
2022-12-17T16:01:08.060Z,72.10
2022-12-17T16:03:36.158Z,72.20
2022-12-17T16:06:04.199Z,72.30
2022-12-17T16:08:32.149Z,72.10
2022-12-17T16:11:00.080Z,71.80
2022-12-17T16:13:28.109Z,71.60
2022-12-17T16:16:03.657Z,71.70
2022-12-17T16:18:32.240Z,71.90
2022-12-17T16:21:04.222Z,71.90
2022-12-17T16:23:32.175Z,71.80
2022-12-17T16:26:02.021Z,71.60
2022-12-17T16:28:30.575Z,71.60
2022-12-17T16:31:01.878Z,71.80
2022-12-17T16:33:35.808Z,71.70
2022-12-17T16:36:05.144Z,71.40
2022-12-17T16:38:33.945Z,71.10
2022-12-17T16:41:03.580Z,71.30
2022-12-17T16:43:35.241Z,71.40
2022-12-17T16:46:10.558Z,71.40
2022-12-17T16:48:40.805Z,71.50
2022-12-17T16:51:18.991Z,71.50
2022-12-17T16:53:51.959Z,71.60
2022-12-17T16:56:21.765Z,71.60
2022-12-17T16:58:50.002Z,71.50
2022-12-17T17:01:21.264Z,71.40
2022-12-17T17:03:50.020Z,71.40
2022-12-17T17:06:18.607Z,71.40
2022-12-17T17:08:46.678Z,71.40
2022-12-17T17:11:16.647Z,71.30
2022-12-17T17:13:44.922Z,71.30
2022-12-17T17:16:16.118Z,71.30
2022-12-17T17:18:45.584Z,71.30
2022-12-17T17:21:23.441Z,71.40
2022-12-17T17:23:53.448Z,71.40
2022-12-17T17:26:25.827Z,71.40
2022-12-17T17:28:54.108Z,71.30
2022-12-17T17:31:26.643Z,71.20
2022-12-17T17:33:59.928Z,71.20
2022-12-17T17:36:30.241Z,71.30
2022-12-17T17:39:00.156Z,71.30
2022-12-17T17:41:30.859Z,71.20
2022-12-17T17:44:00.477Z,71.10
2022-12-17T17:46:30.940Z,71.10
2022-12-17T17:49:02.078Z,71.20
2022-12-17T17:52:07.405Z,71.00
2022-12-17T17:54:20.282Z,70.90
2022-12-17T17:56:48.281Z,71.00
2022-12-17T17:59:19.393Z,70.80
2022-12-17T18:01:49.508Z,70.60
2022-12-17T18:04:21.090Z,70.70
2022-12-17T18:07:23.211Z,70.80
2022-12-17T18:09:37.769Z,70.90
2022-12-17T18:12:27.335Z,70.80
2022-12-17T18:17:42.281Z,70.70
2022-12-17T18:20:12.577Z,70.60
2022-12-17T18:22:40.876Z,70.60
2022-12-17T18:25:09.313Z,70.70
2022-12-17T18:27:37.250Z,70.60
2022-12-17T18:30:05.908Z,70.70
2022-12-17T18:32:33.832Z,70.70
2022-12-17T18:35:01.737Z,70.70
2022-12-17T18:37:31.092Z,70.60
2022-12-17T18:39:59.012Z,70.60
2022-12-17T18:42:44.572Z,70.40
2022-12-17T18:45:12.473Z,70.30
2022-12-17T18:47:42.455Z,70.20
2022-12-17T18:50:11.320Z,70.20
2022-12-17T18:52:40.767Z,70.30
2022-12-17T18:55:11.768Z,70.40
2022-12-17T18:57:39.739Z,70.40
2022-12-17T19:00:10.376Z,70.30
2022-12-17T19:02:38.460Z,70.40
2022-12-17T19:05:06.746Z,70.40
2022-12-17T19:07:34.666Z,70.40
2022-12-17T19:10:04.256Z,70.50
2022-12-17T19:12:33.080Z,70.50
2022-12-17T19:15:00.989Z,70.60
2022-12-17T19:17:28.902Z,70.60
2022-12-17T19:19:56.841Z,70.70
2022-12-17T19:22:24.812Z,70.50
2022-12-17T19:24:52.716Z,70.40
2022-12-17T19:27:22.034Z,70.30
2022-12-17T19:29:57.356Z,70.30
2022-12-17T19:32:25.856Z,70.20
2022-12-17T19:34:53.831Z,70.40
2022-12-17T19:37:21.844Z,70.50
2022-12-17T19:39:49.765Z,70.30
2022-12-17T19:42:25.362Z,70.20
2022-12-17T19:44:55.464Z,70.10
2022-12-17T19:47:24.493Z,70.00
2022-12-17T19:49:52.651Z,70.00
2022-12-17T19:52:20.565Z,70.10
2022-12-17T19:54:49.745Z,70.20
2022-12-17T19:57:17.762Z,70.10
2022-12-17T19:59:45.668Z,70.00
2022-12-17T20:02:17.189Z,70.00
2022-12-17T20:04:45.314Z,70.00
2022-12-17T20:07:13.261Z,70.00
2022-12-17T20:09:44.052Z,70.00
2022-12-17T20:12:12.679Z,70.10
2022-12-17T20:14:40.623Z,70.00
2022-12-17T20:17:08.860Z,69.90
2022-12-17T20:19:38.662Z,69.90
2022-12-17T20:22:07.742Z,70.00
2022-12-17T20:24:37.200Z,69.80
2022-12-17T20:27:05.721Z,69.90
2022-12-17T20:29:33.707Z,69.90
2022-12-17T20:32:03.114Z,69.90
2022-12-17T20:34:31.140Z,69.80
2022-12-17T20:37:00.578Z,69.90
2022-12-17T20:39:28.668Z,70.10
2022-12-17T20:41:57.284Z,70.20
2022-12-17T20:44:25.295Z,70.40
2022-12-17T20:46:53.319Z,70.50
2022-12-17T20:49:21.290Z,70.20
2022-12-17T20:51:49.218Z,69.90
2022-12-17T20:54:18.830Z,69.80
2022-12-17T20:56:46.876Z,69.80
2022-12-17T20:59:16.623Z,69.80
2022-12-17T21:01:45.052Z,69.60
2022-12-17T21:04:13.841Z,69.40
2022-12-17T21:06:43.544Z,69.50
2022-12-17T21:09:12.059Z,69.30
2022-12-17T21:11:42.875Z,69.30
2022-12-17T21:14:13.676Z,69.50
2022-12-17T21:16:43.012Z,69.60
2022-12-17T21:19:13.911Z,69.60
2022-12-17T21:21:41.956Z,69.70
2022-12-17T21:24:10.917Z,69.70
2022-12-17T21:26:42.444Z,69.70
2022-12-17T21:29:11.291Z,69.70
2022-12-17T21:31:40.991Z,69.60
2022-12-17T21:34:12.941Z,69.50
2022-12-17T21:36:41.802Z,69.40
2022-12-17T21:39:10.775Z,69.30
2022-12-17T21:41:44.323Z,69.10
2022-12-17T21:44:14.860Z,69.30
2022-12-17T21:46:47.612Z,69.30
2022-12-17T21:49:18.897Z,69.40
2022-12-17T21:51:47.061Z,69.50
2022-12-17T21:54:19.299Z,69.50
2022-12-17T21:56:49.479Z,69.40
2022-12-17T21:59:18.096Z,69.30
2022-12-17T22:01:46.256Z,69.30
2022-12-17T22:04:14.306Z,69.30
2022-12-17T22:06:48.432Z,69.30
2022-12-17T22:09:43.702Z,69.40
2022-12-17T22:12:35.123Z,69.30
2022-12-17T22:15:03.055Z,69.50
2022-12-17T22:17:31.411Z,69.60
2022-12-17T22:19:59.338Z,69.60
2022-12-17T22:22:27.287Z,69.80
2022-12-17T22:24:55.422Z,70.00
2022-12-17T22:27:25.276Z,70.10
2022-12-17T22:30:10.669Z,70.10
2022-12-17T22:32:56.167Z,70.20
2022-12-17T22:37:05.695Z,70.10
2022-12-17T22:40:41.421Z,70.00
2022-12-17T22:44:33.411Z,70.00
2022-12-17T22:44:38.098Z,69.50
2022-12-17T22:46:43.669Z,69.50
2022-12-17T22:49:12.061Z,69.60
2022-12-17T22:51:42.723Z,69.60
2022-12-17T22:54:14.004Z,69.60
2022-12-17T22:57:01.492Z,69.70
2022-12-17T22:59:33.252Z,69.60
2022-12-17T23:02:01.373Z,69.70
2022-12-17T23:04:29.367Z,69.60
2022-12-17T23:06:57.349Z,69.20
2022-12-17T23:09:25.315Z,69.10
2022-12-17T23:11:53.413Z,69.10
2022-12-17T23:14:21.642Z,69.10
2022-12-17T23:16:50.906Z,69.10
2022-12-17T23:19:19.212Z,69.10
2022-12-17T23:21:47.132Z,69.10
2022-12-17T23:24:15.188Z,69.10
2022-12-17T23:26:43.114Z,68.90
2022-12-17T23:29:19.329Z,69.10
2022-12-17T23:31:48.365Z,69.40
2022-12-17T23:34:17.785Z,69.50
2022-12-17T23:36:45.683Z,69.40
2022-12-17T23:39:13.697Z,69.30
2022-12-17T23:41:41.747Z,69.20
2022-12-17T23:44:09.649Z,69.30
2022-12-17T23:46:37.785Z,69.40
2022-12-17T23:49:06.732Z,69.30
2022-12-17T23:51:36.080Z,68.90
2022-12-17T23:54:04.080Z,69.10
2022-12-17T23:56:33.095Z,69.30
2022-12-17T23:59:02.815Z,69.40
